createdAt,value
2022-12-06T00:01:32.932Z,0.93
2022-12-06T00:04:03.886Z,0.30
2022-12-06T00:06:33.873Z,0.30
2022-12-06T00:09:01.313Z,0.93
2022-12-06T00:11:34.336Z,0.30
2022-12-06T00:14:07.308Z,0.57
2022-12-06T00:16:35.802Z,0.53
2022-12-06T00:19:04.725Z,0.40
2022-12-06T00:21:36.149Z,0.57
2022-12-06T00:24:11.784Z,0.50
2022-12-06T00:26:42.426Z,0.43
2022-12-06T00:29:14.469Z,0.33
2022-12-06T00:31:41.654Z,0.30
2022-12-06T00:34:08.740Z,0.67
2022-12-06T00:36:39.164Z,0.30
2022-12-06T00:39:13.436Z,0.40
2022-12-06T00:41:41.170Z,0.30
2022-12-06T00:44:08.770Z,0.67
2022-12-06T00:46:37.194Z,0.43
2022-12-06T00:49:07.469Z,0.40
2022-12-06T00:51:35.791Z,0.40
2022-12-06T00:54:03.467Z,0.30
2022-12-06T00:56:30.897Z,0.60
2022-12-06T00:58:58.201Z,0.53
2022-12-06T01:01:33.583Z,0.30
2022-12-06T01:04:05.511Z,0.40
2022-12-06T01:06:36.575Z,0.40
2022-12-06T01:09:09.092Z,0.73
2022-12-06T01:11:37.772Z,0.07
2022-12-06T01:14:04.822Z,0.20
2022-12-06T01:16:32.764Z,0.60
2022-12-06T01:19:03.857Z,0.47
2022-12-06T01:21:31.630Z,0.30
2022-12-06T01:23:59.171Z,0.53
2022-12-06T01:26:30.911Z,0.83
2022-12-06T01:28:59.636Z,0.40
2022-12-06T01:31:35.408Z,0.50
2022-12-06T01:34:06.659Z,0.20
2022-12-06T01:36:33.867Z,0.10
2022-12-06T01:39:05.038Z,0.30
2022-12-06T01:41:32.145Z,0.67
2022-12-06T01:43:59.116Z,0.47
2022-12-06T01:46:37.104Z,0.43
2022-12-06T01:49:16.132Z,0.40
2022-12-06T01:52:03.185Z,0.63
2022-12-06T01:54:30.585Z,0.20
2022-12-06T01:56:59.086Z,0.30
2022-12-06T01:59:28.380Z,0.57
2022-12-06T02:01:56.301Z,0.30
2022-12-06T02:04:25.021Z,0.50
2022-12-06T02:06:54.564Z,0.30
2022-12-06T02:09:23.314Z,0.73
2022-12-06T02:11:50.424Z,0.40
2022-12-06T02:14:24.033Z,0.17
2022-12-06T02:17:05.871Z,0.30
2022-12-06T02:20:11.560Z,0.53
2022-12-06T02:23:05.685Z,0.20
2022-12-06T02:26:20.576Z,0.70
2022-12-06T02:29:30.488Z,0.50
2022-12-06T02:32:16.184Z,0.37
2022-12-06T02:35:04.470Z,0.20
2022-12-06T02:37:56.311Z,0.70
2022-12-06T02:40:35.207Z,0.00
2022-12-06T02:43:18.163Z,0.43
2022-12-06T02:45:53.371Z,0.70
2022-12-06T02:48:23.357Z,0.10
2022-12-06T02:51:04.712Z,0.33
2022-12-06T02:53:37.230Z,0.37
2022-12-06T02:56:05.330Z,0.77
2022-12-06T02:58:37.688Z,0.10
2022-12-06T03:01:28.632Z,0.30
2022-12-06T03:04:13.605Z,0.50
2022-12-06T03:07:40.368Z,0.30
2022-12-06T03:10:26.454Z,0.23
2022-12-06T03:13:24.092Z,0.93
2022-12-06T03:16:21.257Z,0.13
2022-12-06T03:19:07.177Z,0.20
2022-12-06T03:21:50.035Z,0.33
2022-12-06T03:24:17.770Z,1.00
2022-12-06T03:26:49.501Z,0.70
2022-12-06T03:29:20.971Z,0.60
2022-12-06T03:31:49.826Z,0.40
2022-12-06T03:34:19.437Z,0.70
2022-12-06T03:36:49.688Z,0.20
2022-12-06T03:39:33.794Z,0.63
2022-12-06T03:42:03.172Z,0.67
2022-12-06T03:44:30.805Z,0.30
2022-12-06T03:47:50.795Z,0.47
2022-12-06T03:50:27.533Z,0.00
2022-12-06T03:52:54.703Z,0.00
2022-12-06T03:55:22.173Z,0.10
2022-12-06T03:57:49.160Z,0.00
2022-12-06T04:00:16.759Z,0.40
2022-12-06T04:02:43.793Z,0.00
2022-12-06T04:05:11.504Z,0.20
2022-12-06T04:07:39.078Z,0.10
2022-12-06T04:10:07.895Z,0.00
2022-12-06T04:12:54.738Z,0.37
2022-12-06T04:15:23.332Z,0.00
2022-12-06T04:18:09.569Z,0.20
2022-12-06T04:21:18.863Z,0.43
2022-12-06T04:23:49.955Z,0.30
2022-12-06T04:26:21.483Z,0.30
2022-12-06T04:29:09.150Z,0.30
2022-12-06T04:31:56.103Z,0.20
2022-12-06T04:34:42.133Z,0.17
2022-12-06T04:37:28.612Z,0.20
2022-12-06T04:39:55.600Z,0.10
2022-12-06T04:42:40.958Z,0.20
2022-12-06T04:45:08.995Z,0.10
2022-12-06T04:47:36.044Z,0.10
2022-12-06T04:50:03.704Z,0.57
2022-12-06T04:52:35.389Z,0.00
2022-12-06T04:55:05.155Z,0.00
2022-12-06T04:57:32.337Z,0.10
2022-12-06T04:59:59.575Z,0.17
2022-12-06T05:02:26.796Z,0.40
2022-12-06T05:04:53.853Z,0.20
2022-12-06T05:07:20.757Z,0.10
2022-12-06T05:09:49.274Z,0.10
2022-12-06T05:12:16.283Z,0.13
2022-12-06T05:14:43.235Z,0.30
2022-12-06T05:17:10.157Z,0.77
2022-12-06T05:19:37.223Z,0.30
2022-12-06T05:22:04.153Z,0.53
2022-12-06T05:24:31.208Z,0.03
2022-12-06T05:26:58.209Z,0.10
2022-12-06T05:29:25.200Z,0.30
2022-12-06T05:31:52.232Z,0.00
2022-12-06T05:34:19.416Z,0.43
2022-12-06T05:36:46.378Z,0.33
2022-12-06T05:39:13.705Z,0.10
2022-12-06T05:41:40.668Z,0.30
2022-12-06T05:44:11.015Z,0.10
2022-12-06T05:46:37.981Z,0.20
2022-12-06T05:49:04.951Z,0.50
2022-12-06T05:51:31.942Z,1.20
2022-12-06T05:54:02.944Z,0.37
2022-12-06T05:56:29.901Z,0.20
2022-12-06T05:58:56.822Z,0.40
2022-12-06T06:01:23.970Z,0.83
2022-12-06T06:03:50.945Z,0.67
2022-12-06T06:06:18.283Z,0.53
2022-12-06T06:08:45.350Z,0.33
2022-12-06T06:11:12.403Z,0.37
2022-12-06T06:13:39.361Z,0.57
2022-12-06T06:16:06.839Z,0.30
2022-12-06T06:18:34.188Z,0.50
2022-12-06T06:21:01.451Z,0.60
2022-12-06T06:23:29.332Z,0.30
2022-12-06T06:25:56.970Z,0.67
2022-12-06T06:28:24.328Z,0.13
2022-12-06T06:30:52.065Z,0.43
2022-12-06T06:33:19.204Z,0.57
2022-12-06T06:35:46.318Z,0.73
2022-12-06T06:38:13.483Z,1.07
2022-12-06T06:40:40.516Z,0.23
2022-12-06T06:43:20.537Z,0.43
2022-12-06T06:45:55.664Z,0.00
2022-12-06T06:48:27.394Z,0.50
2022-12-06T06:50:57.695Z,0.37
2022-12-06T06:53:27.914Z,0.70
2022-12-06T06:55:55.851Z,0.70
2022-12-06T06:58:26.237Z,0.40
2022-12-06T07:00:59.620Z,0.27
2022-12-06T07:03:29.254Z,0.40
2022-12-06T07:06:00.848Z,0.30
2022-12-06T07:08:30.669Z,0.50
2022-12-06T07:10:58.937Z,0.53
2022-12-06T07:13:28.324Z,0.23
2022-12-06T07:15:55.934Z,0.13
2022-12-06T07:18:23.609Z,0.87
2022-12-06T07:21:04.973Z,0.80
2022-12-06T07:23:36.311Z,1.00
2022-12-06T07:26:07.114Z,1.10
2022-12-06T07:28:39.476Z,0.30
2022-12-06T07:31:20.056Z,0.07
2022-12-06T07:33:48.442Z,0.20
2022-12-06T07:36:16.254Z,0.30
2022-12-06T07:38:49.343Z,0.43
2022-12-06T07:41:37.324Z,0.30
2022-12-06T07:44:23.244Z,0.57
2022-12-06T07:46:50.757Z,0.70
2022-12-06T07:49:19.000Z,0.03
2022-12-06T07:51:47.086Z,0.73
2022-12-06T07:54:16.176Z,1.03
2022-12-06T07:56:44.249Z,1.00
2022-12-06T07:59:12.346Z,0.40
2022-12-06T08:01:39.703Z,0.40
2022-12-06T08:04:08.010Z,0.83
2022-12-06T08:06:36.280Z,0.47
2022-12-06T08:09:03.726Z,0.73
2022-12-06T08:11:30.894Z,0.60
2022-12-06T08:13:58.025Z,0.53
2022-12-06T08:16:25.193Z,0.00
2022-12-06T08:18:52.838Z,0.20
2022-12-06T08:21:20.235Z,0.20
2022-12-06T08:23:47.333Z,0.30
2022-12-06T08:26:18.743Z,0.30
2022-12-06T08:28:46.079Z,0.17
2022-12-06T08:31:17.811Z,0.20
2022-12-06T08:33:45.614Z,0.00
2022-12-06T08:36:19.295Z,0.03
2022-12-06T08:38:47.724Z,0.40
2022-12-06T08:41:33.695Z,0.13
2022-12-06T08:44:03.651Z,0.10
2022-12-06T08:46:33.585Z,0.23
2022-12-06T08:49:01.739Z,0.03
2022-12-06T08:51:29.452Z,0.47
2022-12-06T08:53:57.399Z,0.93
2022-12-06T08:56:25.291Z,1.03
2022-12-06T08:58:59.397Z,0.67
2022-12-06T09:01:37.112Z,1.20
2022-12-06T09:04:08.398Z,0.10
2022-12-06T09:06:40.229Z,0.50
2022-12-06T09:09:10.098Z,1.00
2022-12-06T09:11:38.826Z,0.40
2022-12-06T09:14:07.424Z,0.63
2022-12-06T09:16:34.875Z,0.77
2022-12-06T09:19:02.177Z,0.00
2022-12-06T09:21:30.693Z,0.30
2022-12-06T09:23:59.290Z,0.30
2022-12-06T09:26:27.971Z,0.60
2022-12-06T09:28:58.171Z,0.70
2022-12-06T09:31:26.048Z,0.33
2022-12-06T09:33:53.101Z,0.50
2022-12-06T09:36:30.540Z,0.80
2022-12-06T09:39:18.299Z,0.50
2022-12-06T09:42:16.341Z,0.40
2022-12-06T09:45:08.180Z,0.37
2022-12-06T09:48:26.169Z,0.60
2022-12-06T09:51:19.308Z,0.20
2022-12-06T09:54:28.510Z,0.60
2022-12-06T09:57:04.647Z,0.80
2022-12-06T10:00:10.618Z,1.10
2022-12-06T10:03:13.936Z,0.40
2022-12-06T10:06:09.057Z,0.10
2022-12-06T10:09:14.186Z,0.73
2022-12-06T10:12:12.987Z,0.67
2022-12-06T10:15:00.654Z,0.63
2022-12-06T10:18:07.763Z,0.30
2022-12-06T10:21:05.670Z,0.90
2022-12-06T10:24:01.945Z,0.27
2022-12-06T10:27:09.985Z,1.40
2022-12-06T10:29:54.573Z,0.30
2022-12-06T10:32:38.751Z,0.53
2022-12-06T10:35:39.699Z,0.27
2022-12-06T10:38:40.421Z,0.33
2022-12-06T10:41:28.355Z,0.20
2022-12-06T10:44:15.719Z,0.20
2022-12-06T10:47:04.939Z,0.20
2022-12-06T10:49:47.541Z,0.10
2022-12-06T10:52:19.975Z,0.40
2022-12-06T10:55:05.281Z,0.30
2022-12-06T10:57:50.366Z,0.20
2022-12-06T11:00:31.339Z,0.13
2022-12-06T11:03:12.024Z,0.20
2022-12-06T11:05:56.830Z,0.03
2022-12-06T11:08:57.999Z,0.00
2022-12-06T11:11:36.668Z,0.10
2022-12-06T11:14:14.195Z,0.00
2022-12-06T11:16:50.467Z,0.27
2022-12-06T11:19:39.448Z,0.23
2022-12-06T11:22:37.092Z,0.00
2022-12-06T11:25:21.825Z,0.20
2022-12-06T11:28:11.909Z,0.03
2022-12-06T11:30:38.921Z,0.70
2022-12-06T11:33:06.331Z,0.67
2022-12-06T11:35:33.456Z,0.47
2022-12-06T11:38:07.245Z,1.13
2022-12-06T11:40:43.786Z,0.30
2022-12-06T11:43:20.793Z,0.30
2022-12-06T11:45:49.642Z,0.27
2022-12-06T11:48:22.895Z,0.07
2022-12-06T11:50:54.549Z,0.30
2022-12-06T11:53:41.929Z,0.27
2022-12-06T11:56:27.189Z,0.47
2022-12-06T11:59:24.777Z,0.60
2022-12-06T12:02:01.751Z,0.50
2022-12-06T12:04:38.754Z,1.27
2022-12-06T12:07:23.297Z,0.97
2022-12-06T12:09:57.427Z,1.40
2022-12-06T12:12:56.050Z,0.20
2022-12-06T12:15:23.613Z,0.57
2022-12-06T12:17:57.154Z,0.40
2022-12-06T12:20:33.498Z,0.50
2022-12-06T12:23:32.923Z,0.60
2022-12-06T12:26:20.260Z,0.17
2022-12-06T12:29:22.178Z,0.43
2022-12-06T12:31:54.317Z,0.77
2022-12-06T12:34:29.914Z,0.37
2022-12-06T12:37:04.021Z,0.00
2022-12-06T12:39:44.631Z,0.53
2022-12-06T12:42:36.643Z,0.77
2022-12-06T12:45:06.122Z,0.10
2022-12-06T12:47:33.393Z,0.57
2022-12-06T12:50:24.138Z,0.47
2022-12-06T12:52:52.438Z,0.60
2022-12-06T12:55:31.127Z,0.20
2022-12-06T12:58:01.773Z,0.70
2022-12-06T13:01:05.344Z,0.93
2022-12-06T13:06:38.942Z,0.00
2022-12-06T13:09:07.776Z,0.20
2022-12-06T13:11:46.111Z,0.20
2022-12-06T13:14:22.511Z,0.67
2022-12-06T13:16:54.645Z,0.43
2022-12-06T13:19:33.509Z,0.30
2022-12-06T13:22:03.822Z,0.30
2022-12-06T13:24:34.026Z,0.30
2022-12-06T13:27:14.517Z,0.30
2022-12-06T13:29:57.389Z,0.20
2022-12-06T13:32:38.894Z,0.20
2022-12-06T13:35:29.551Z,0.53
2022-12-06T13:38:25.851Z,0.10
2022-12-06T13:40:58.899Z,0.67
2022-12-06T13:43:25.931Z,0.40
2022-12-06T13:45:53.670Z,0.43
2022-12-06T13:48:29.457Z,0.20
2022-12-06T13:51:26.067Z,0.53
2022-12-06T13:54:13.305Z,0.97
2022-12-06T13:56:42.035Z,1.37
2022-12-06T13:59:12.109Z,0.50
2022-12-06T14:01:53.968Z,0.17
2022-12-06T14:06:54.183Z,0.50
2022-12-06T14:09:23.865Z,0.50
2022-12-06T14:11:53.161Z,0.13
2022-12-06T14:14:25.367Z,0.50
2022-12-06T14:17:18.769Z,0.50
2022-12-06T14:19:59.748Z,0.57
2022-12-06T14:22:31.369Z,1.03
2022-12-06T14:25:22.845Z,0.47
2022-12-06T14:28:07.616Z,0.33
2022-12-06T14:30:35.244Z,0.50
2022-12-06T14:33:02.572Z,0.40
2022-12-06T14:35:37.138Z,0.40
2022-12-06T14:38:29.411Z,0.60
2022-12-06T14:41:15.665Z,0.30
2022-12-06T14:43:47.675Z,0.23
2022-12-06T14:46:17.932Z,0.30
2022-12-06T14:49:05.077Z,0.87
2022-12-06T14:51:42.886Z,0.77
2022-12-06T14:54:28.036Z,0.37
2022-12-06T14:56:55.248Z,0.30
2022-12-06T15:00:10.813Z,0.30
2022-12-06T15:02:27.768Z,0.93
2022-12-06T15:04:55.416Z,1.03
2022-12-06T15:07:41.038Z,0.50
2022-12-06T15:10:30.085Z,0.17
2022-12-06T15:13:15.449Z,0.23
2022-12-06T15:15:48.048Z,0.10
2022-12-06T15:18:26.320Z,0.50
2022-12-06T15:20:54.188Z,0.10
2022-12-06T15:23:41.012Z,0.27
2022-12-06T15:26:13.307Z,0.20
2022-12-06T15:28:40.771Z,0.10
2022-12-06T15:31:30.087Z,0.10
2022-12-06T15:33:57.490Z,0.20
2022-12-06T15:36:35.697Z,0.13
2022-12-06T15:39:02.687Z,0.10
2022-12-06T15:41:30.153Z,0.37
2022-12-06T15:43:57.824Z,0.47
2022-12-06T15:46:28.306Z,0.50
2022-12-06T15:48:56.561Z,0.20
2022-12-06T15:51:26.745Z,0.23
2022-12-06T15:53:57.172Z,0.17
2022-12-06T15:56:29.958Z,0.67
2022-12-06T15:58:56.943Z,0.10
2022-12-06T16:01:28.350Z,0.50
2022-12-06T16:03:57.971Z,0.00
2022-12-06T16:06:27.957Z,0.23
2022-12-06T16:08:58.461Z,0.63
2022-12-06T16:11:30.784Z,0.87
2022-12-06T16:13:58.093Z,0.00
2022-12-06T16:16:25.468Z,0.47
2022-12-06T16:18:52.733Z,1.10
2022-12-06T16:21:30.700Z,0.30
2022-12-06T16:24:16.460Z,0.53
2022-12-06T16:26:47.161Z,0.23
2022-12-06T16:29:26.260Z,0.50
2022-12-06T16:31:54.148Z,0.53
2022-12-06T16:34:21.606Z,0.10
2022-12-06T16:37:06.710Z,0.40
2022-12-06T16:39:34.988Z,0.47
2022-12-06T16:42:04.449Z,0.40
2022-12-06T16:44:32.105Z,0.10
2022-12-06T16:46:59.193Z,0.60
2022-12-06T16:49:45.747Z,0.20
2022-12-06T16:52:14.195Z,0.33
2022-12-06T16:54:42.045Z,0.33
2022-12-06T16:57:14.342Z,0.83
2022-12-06T16:59:42.984Z,0.27
2022-12-06T17:02:28.448Z,0.57
2022-12-06T17:04:57.700Z,0.67
2022-12-06T17:07:24.883Z,1.17
2022-12-06T17:09:52.471Z,1.07
2022-12-06T17:12:20.037Z,0.43
2022-12-06T17:14:47.157Z,0.67
2022-12-06T17:17:22.213Z,0.87
2022-12-06T17:19:49.780Z,0.40
2022-12-06T17:22:19.787Z,1.20
2022-12-06T17:24:46.932Z,0.10
2022-12-06T17:27:15.974Z,0.07
2022-12-06T17:29:44.462Z,0.20
2022-12-06T17:32:13.227Z,0.60
2022-12-06T17:34:40.460Z,0.20
2022-12-06T17:37:07.716Z,0.50
2022-12-06T17:39:35.164Z,0.33
2022-12-06T17:42:21.061Z,0.80
2022-12-06T17:44:48.084Z,1.10
2022-12-06T17:47:15.085Z,0.60
2022-12-06T17:49:43.092Z,1.20
2022-12-06T17:52:14.837Z,0.87
2022-12-06T17:54:42.004Z,0.60
2022-12-06T17:57:18.591Z,0.80
2022-12-06T17:59:48.100Z,0.57
2022-12-06T18:02:19.780Z,0.40
2022-12-06T18:04:48.174Z,0.70
2022-12-06T18:07:17.560Z,0.30
2022-12-06T18:09:45.357Z,1.07
2022-12-06T18:12:14.833Z,0.73
2022-12-06T18:14:41.968Z,0.23
2022-12-06T18:17:09.409Z,0.43
2022-12-06T18:19:36.653Z,1.10
2022-12-06T18:22:04.183Z,0.50
2022-12-06T18:24:35.236Z,0.20
2022-12-06T18:27:04.717Z,0.17
2022-12-06T18:29:32.624Z,0.53
2022-12-06T18:31:59.715Z,1.33
2022-12-06T18:34:26.730Z,1.10
2022-12-06T18:36:53.748Z,1.13
2022-12-06T18:39:24.292Z,1.10
2022-12-06T18:41:55.500Z,0.63
2022-12-06T18:44:23.062Z,0.70
2022-12-06T18:46:50.215Z,1.17
2022-12-06T18:49:17.458Z,1.33
2022-12-06T18:51:44.625Z,1.47
2022-12-06T18:54:19.565Z,0.90
2022-12-06T18:57:28.938Z,0.60
2022-12-06T19:00:28.552Z,0.87
2022-12-06T19:03:01.889Z,0.33
2022-12-06T19:06:01.353Z,0.40
2022-12-06T19:08:29.794Z,1.13
2022-12-06T19:11:22.800Z,0.90
2022-12-06T19:14:00.695Z,1.27
2022-12-06T19:16:30.536Z,0.57
2022-12-06T19:19:03.255Z,1.40
2022-12-06T19:21:33.287Z,0.70
2022-12-06T19:24:01.226Z,0.77
2022-12-06T19:26:29.679Z,1.27
2022-12-06T19:28:57.513Z,1.27
2022-12-06T19:31:28.306Z,0.60
2022-12-06T19:33:55.592Z,0.97
2022-12-06T19:36:27.303Z,0.53
2022-12-06T19:39:05.614Z,1.33
2022-12-06T19:42:11.717Z,1.23
2022-12-06T19:44:39.593Z,0.43
2022-12-06T19:47:06.630Z,0.93
2022-12-06T19:49:33.738Z,2.00
2022-12-06T19:52:04.051Z,1.63
2022-12-06T19:54:33.402Z,0.47
2022-12-06T19:57:04.142Z,1.97
2022-12-06T19:59:35.190Z,1.37
2022-12-06T20:02:03.969Z,0.43
2022-12-06T20:04:38.565Z,1.33
2022-12-06T20:07:06.936Z,1.30
2022-12-06T20:09:34.627Z,1.53
2022-12-06T20:12:05.399Z,1.43
2022-12-06T20:14:45.024Z,1.27
2022-12-06T20:17:23.609Z,1.23
2022-12-06T20:19:52.221Z,0.50
2022-12-06T20:22:22.334Z,1.23
2022-12-06T20:24:49.666Z,1.70
2022-12-06T20:27:16.761Z,0.30
2022-12-06T20:29:44.373Z,0.90
2022-12-06T20:32:11.608Z,1.20
2022-12-06T20:34:38.679Z,0.87
2022-12-06T20:37:07.012Z,1.07
2022-12-06T20:39:41.436Z,1.37
2022-12-06T20:42:08.444Z,1.97
2022-12-06T20:44:36.342Z,1.23
2022-12-06T20:47:03.602Z,2.00
2022-12-06T20:49:30.842Z,1.77
2022-12-06T20:51:59.706Z,1.43
2022-12-06T20:54:26.686Z,0.70
2022-12-06T20:56:53.844Z,1.07
2022-12-06T20:59:21.524Z,1.53
2022-12-06T21:01:49.180Z,1.40
2022-12-06T21:04:17.043Z,0.90
2022-12-06T21:06:44.502Z,0.60
2022-12-06T21:09:11.803Z,0.80
2022-12-06T21:11:41.440Z,0.90
2022-12-06T21:14:11.877Z,1.17
2022-12-06T21:16:42.802Z,1.80
2022-12-06T21:19:20.113Z,1.87
2022-12-06T21:21:53.705Z,1.83
2022-12-06T21:24:22.480Z,1.17
2022-12-06T21:26:49.716Z,1.30
2022-12-06T21:29:28.426Z,0.67
2022-12-06T21:31:57.919Z,1.30
2022-12-06T21:34:24.916Z,2.10
2022-12-06T21:36:51.885Z,1.23
2022-12-06T21:39:19.350Z,1.70
2022-12-06T21:41:46.546Z,1.53
2022-12-06T21:44:13.617Z,1.43
2022-12-06T21:46:40.713Z,2.03
2022-12-06T21:49:07.894Z,2.00
2022-12-06T21:51:34.905Z,1.50
2022-12-06T21:54:02.014Z,0.40
2022-12-06T21:56:31.182Z,1.27
2022-12-06T21:59:00.249Z,1.40
2022-12-06T22:01:30.159Z,2.40
2022-12-06T22:04:01.141Z,0.70
2022-12-06T22:06:28.247Z,1.47
2022-12-06T22:09:06.059Z,0.50
2022-12-06T22:11:34.532Z,2.07
2022-12-06T22:14:04.842Z,1.37
2022-12-06T22:16:32.405Z,1.60
2022-12-06T22:19:01.094Z,1.03
2022-12-06T22:21:32.144Z,1.03
2022-12-06T22:23:59.852Z,1.87
2022-12-06T22:26:29.786Z,2.57
2022-12-06T22:28:59.982Z,0.80
2022-12-06T22:31:33.822Z,2.13
2022-12-06T22:34:02.447Z,0.80
2022-12-06T22:36:30.356Z,1.63
2022-12-06T22:39:00.901Z,1.50
2022-12-06T22:41:29.534Z,0.40
2022-12-06T22:44:02.843Z,1.57
2022-12-06T22:46:31.711Z,0.87
2022-12-06T22:49:01.631Z,1.17
2022-12-06T22:51:36.084Z,0.83
2022-12-06T22:54:11.653Z,1.07
2022-12-06T22:56:41.325Z,1.07
2022-12-06T22:59:09.696Z,2.03
2022-12-06T23:01:36.717Z,1.47
2022-12-06T23:04:07.105Z,2.17
2022-12-06T23:06:35.980Z,2.13
2022-12-06T23:09:05.883Z,2.27
2022-12-06T23:11:36.337Z,1.60
2022-12-06T23:14:04.526Z,0.87
2022-12-06T23:16:32.762Z,1.57
2022-12-06T23:19:02.184Z,0.97
2022-12-06T23:21:35.892Z,1.43
2022-12-06T23:24:10.020Z,1.63
2022-12-06T23:26:41.326Z,1.20
2022-12-06T23:29:09.483Z,1.00
2022-12-06T23:31:40.933Z,1.80
2022-12-06T23:34:22.588Z,1.93
2022-12-06T23:36:50.196Z,1.07
2022-12-06T23:39:17.555Z,3.13
2022-12-06T23:41:45.103Z,2.03
2022-12-06T23:44:13.410Z,1.50
2022-12-06T23:46:42.527Z,2.50
2022-12-06T23:49:17.828Z,1.10
2022-12-06T23:51:46.215Z,0.93
2022-12-06T23:54:14.803Z,1.93
2022-12-06T23:56:43.291Z,1.97
2022-12-06T23:59:14.748Z,1.93
